createdAt,value
2023-05-13T00:00:21.162Z,5.78
2023-05-13T00:03:08.868Z,6.18
2023-05-13T00:05:36.316Z,6.80
2023-05-13T00:08:07.185Z,5.97
2023-05-13T00:10:34.847Z,5.30
2023-05-13T00:13:02.675Z,5.68
2023-05-13T00:15:30.053Z,6.78
2023-05-13T00:17:57.810Z,6.32
2023-05-13T00:20:25.269Z,5.97
2023-05-13T00:22:52.806Z,5.72
2023-05-13T00:25:20.093Z,6.05
2023-05-13T00:27:47.672Z,6.13
2023-05-13T00:30:15.070Z,6.82
2023-05-13T00:32:42.777Z,6.32
2023-05-13T00:35:10.444Z,6.28
2023-05-13T00:37:38.103Z,6.63
2023-05-13T00:40:05.676Z,5.80
2023-05-13T00:42:33.227Z,6.30
2023-05-13T00:45:00.566Z,5.65
2023-05-13T00:47:28.243Z,6.15
2023-05-13T00:49:55.592Z,5.72
2023-05-13T00:52:23.289Z,6.80
2023-05-13T00:54:50.614Z,5.43
2023-05-13T00:57:18.209Z,6.20
2023-05-13T00:59:45.592Z,7.10
2023-05-13T01:02:26.494Z,5.97
2023-05-13T01:05:03.718Z,6.63
2023-05-13T01:07:34.197Z,6.32
2023-05-13T01:10:04.273Z,7.65
2023-05-13T01:12:33.678Z,5.47
2023-05-13T01:15:04.063Z,6.32
2023-05-13T01:17:50.400Z,6.07
2023-05-13T01:20:19.313Z,6.18
2023-05-13T01:22:47.250Z,6.47
2023-05-13T01:25:14.755Z,6.13
2023-05-13T01:27:42.512Z,5.80
2023-05-13T01:30:10.236Z,7.18
2023-05-13T01:32:38.776Z,6.38
2023-05-13T01:35:07.083Z,7.07
2023-05-13T01:37:34.782Z,6.70
2023-05-13T01:40:04.481Z,7.10
2023-05-13T01:42:35.187Z,5.70
2023-05-13T01:45:03.111Z,6.47
2023-05-13T01:47:30.786Z,6.07
2023-05-13T01:49:58.126Z,6.07
2023-05-13T01:52:25.731Z,5.82
2023-05-13T01:54:53.059Z,5.80
2023-05-13T01:57:20.996Z,6.15
2023-05-13T01:59:48.326Z,6.72
2023-05-13T02:02:16.047Z,6.30
2023-05-13T02:04:43.424Z,6.40
2023-05-13T02:07:11.125Z,5.53
2023-05-13T02:09:38.564Z,6.10
2023-05-13T02:12:06.358Z,6.03
2023-05-13T02:14:33.790Z,5.70
2023-05-13T02:17:01.452Z,6.75
2023-05-13T02:19:28.732Z,5.80
2023-05-13T02:21:56.510Z,5.70
2023-05-13T02:24:23.895Z,5.75
2023-05-13T02:26:51.601Z,6.18
2023-05-13T02:29:18.920Z,5.60
2023-05-13T02:31:46.500Z,5.97
2023-05-13T02:34:13.857Z,6.25
2023-05-13T02:36:41.483Z,6.53
2023-05-13T02:39:08.770Z,6.72
2023-05-13T02:41:36.614Z,5.88
2023-05-13T02:44:03.952Z,6.05
2023-05-13T02:46:31.787Z,6.15
2023-05-13T02:48:59.624Z,6.57
2023-05-13T02:51:27.236Z,5.53
2023-05-13T02:53:54.559Z,6.68
2023-05-13T02:56:22.148Z,6.32
2023-05-13T02:58:49.470Z,6.22
2023-05-13T03:01:17.241Z,5.95
2023-05-13T03:03:44.648Z,7.55
2023-05-13T03:06:12.350Z,7.53
2023-05-13T03:08:39.749Z,7.15
2023-05-13T03:11:07.313Z,6.90
2023-05-13T03:13:34.634Z,6.20
2023-05-13T03:16:02.322Z,7.55
2023-05-13T03:18:31.543Z,6.78
2023-05-13T03:20:59.230Z,7.60
2023-05-13T03:23:26.530Z,6.78
2023-05-13T03:25:54.095Z,7.28
2023-05-13T03:28:21.380Z,7.13
2023-05-13T03:30:49.036Z,6.55
2023-05-13T03:33:16.355Z,5.95
2023-05-13T03:35:44.024Z,6.38
2023-05-13T03:38:11.285Z,6.07
2023-05-13T03:40:39.010Z,7.32
2023-05-13T03:43:06.332Z,7.00
2023-05-13T03:45:33.982Z,6.78
2023-05-13T03:48:01.623Z,6.32
2023-05-13T03:50:29.531Z,6.70
2023-05-13T03:52:57.081Z,6.53
2023-05-13T03:55:24.759Z,5.45
2023-05-13T03:57:52.018Z,5.60
2023-05-13T04:00:20.019Z,5.65
2023-05-13T04:02:47.588Z,5.50
2023-05-13T04:05:15.407Z,5.45
2023-05-13T04:07:42.815Z,5.30
2023-05-13T04:10:13.780Z,5.00
2023-05-13T04:12:42.766Z,5.88
2023-05-13T04:15:10.555Z,5.43
2023-05-13T04:17:37.913Z,5.15
2023-05-13T04:20:05.961Z,4.80
2023-05-13T04:22:33.269Z,5.35
2023-05-13T04:25:00.846Z,5.32
2023-05-13T04:27:28.212Z,5.40
2023-05-13T04:29:55.839Z,5.30
2023-05-13T04:32:23.549Z,5.75
2023-05-13T04:34:51.811Z,5.28
2023-05-13T04:37:19.686Z,5.13
2023-05-13T04:39:47.486Z,6.20
2023-05-13T04:42:15.365Z,5.80
2023-05-13T04:44:43.325Z,6.15
2023-05-13T04:47:10.807Z,5.28
2023-05-13T04:49:38.566Z,6.07
2023-05-13T04:52:06.718Z,6.18
2023-05-13T04:54:39.432Z,6.15
2023-05-13T04:57:07.029Z,5.28
2023-05-13T04:59:35.462Z,6.10
2023-05-13T05:02:02.896Z,4.90
2023-05-13T05:04:30.835Z,5.68
2023-05-13T05:06:58.162Z,6.00
2023-05-13T05:09:25.975Z,5.20
2023-05-13T05:11:53.314Z,5.93
2023-05-13T05:14:21.025Z,6.60
2023-05-13T05:16:48.453Z,6.68
2023-05-13T05:19:16.420Z,6.45
2023-05-13T05:21:43.778Z,5.78
2023-05-13T05:24:11.580Z,5.65
2023-05-13T05:26:39.801Z,6.13
2023-05-13T05:29:08.270Z,7.07
2023-05-13T05:31:35.937Z,5.63
2023-05-13T05:34:03.852Z,6.35
2023-05-13T05:36:31.354Z,6.30
2023-05-13T05:38:59.086Z,6.13
2023-05-13T05:41:26.526Z,6.95
2023-05-13T05:43:54.400Z,6.20
2023-05-13T05:46:23.044Z,6.90
2023-05-13T05:48:50.472Z,6.60
2023-05-13T05:51:17.955Z,7.53
2023-05-13T05:53:45.744Z,6.88
2023-05-13T05:56:13.144Z,6.88
2023-05-13T05:58:40.890Z,7.68
2023-05-13T06:01:08.216Z,6.80
2023-05-13T06:03:36.017Z,6.53
2023-05-13T06:06:03.905Z,6.53
2023-05-13T06:08:31.561Z,6.10
2023-05-13T06:10:59.072Z,6.45
2023-05-13T06:13:26.892Z,6.65
2023-05-13T06:15:54.319Z,6.45
2023-05-13T06:18:22.778Z,5.90
2023-05-13T06:20:50.317Z,6.47
2023-05-13T06:23:18.055Z,7.07
2023-05-13T06:25:45.688Z,5.90
2023-05-13T06:28:13.464Z,5.97
2023-05-13T06:30:40.987Z,6.07
2023-05-13T06:33:10.572Z,5.85
2023-05-13T06:35:38.145Z,6.75
2023-05-13T06:38:06.073Z,5.10
2023-05-13T06:40:34.188Z,3.72
2023-05-13T06:43:02.015Z,5.22
2023-05-13T06:45:29.446Z,4.90
2023-05-13T06:47:57.709Z,4.45
2023-05-13T06:50:25.209Z,5.80
2023-05-13T06:52:52.991Z,5.03
2023-05-13T06:55:20.499Z,4.25
2023-05-13T06:57:48.324Z,4.75
2023-05-13T07:00:16.223Z,4.45
2023-05-13T07:02:44.028Z,4.07
2023-05-13T07:05:12.221Z,3.90
2023-05-13T07:07:39.902Z,4.10
2023-05-13T07:10:07.314Z,3.95
2023-05-13T07:12:35.024Z,4.10
2023-05-13T07:15:02.569Z,4.05
2023-05-13T07:17:31.372Z,3.70
2023-05-13T07:19:59.140Z,4.00
2023-05-13T07:22:27.809Z,3.97
2023-05-13T07:24:55.133Z,4.05
2023-05-13T07:27:22.731Z,3.88
2023-05-13T07:29:50.053Z,4.00
2023-05-13T07:32:17.713Z,3.90
2023-05-13T07:34:45.164Z,3.85
2023-05-13T07:37:13.024Z,3.70
2023-05-13T07:39:40.605Z,3.53
2023-05-13T07:42:08.347Z,3.95
2023-05-13T07:44:35.689Z,3.90
2023-05-13T07:47:03.318Z,3.80
2023-05-13T07:49:30.676Z,4.05
2023-05-13T07:51:58.321Z,3.70
2023-05-13T07:54:25.602Z,4.25
2023-05-13T07:56:53.260Z,4.20
2023-05-13T07:59:20.734Z,3.65
2023-05-13T08:01:48.391Z,3.80
2023-05-13T08:04:15.916Z,3.50
2023-05-13T08:06:44.051Z,3.78
2023-05-13T08:09:12.273Z,4.00
2023-05-13T08:11:39.861Z,3.83
2023-05-13T08:14:07.317Z,3.63
2023-05-13T08:16:38.138Z,3.75
2023-05-13T08:19:05.566Z,3.33
2023-05-13T08:21:33.362Z,3.50
2023-05-13T08:24:00.640Z,3.53
2023-05-13T08:26:28.820Z,4.20
2023-05-13T08:28:57.163Z,3.58
2023-05-13T08:31:25.411Z,3.65
2023-05-13T08:33:53.556Z,3.70
2023-05-13T08:36:26.216Z,3.20
2023-05-13T08:38:53.519Z,3.22
2023-05-13T08:41:22.834Z,3.47
2023-05-13T08:43:50.567Z,3.38
2023-05-13T08:46:19.363Z,3.47
2023-05-13T08:48:46.968Z,3.00
2023-05-13T08:51:14.530Z,2.80
2023-05-13T08:53:42.170Z,2.92
2023-05-13T08:56:09.850Z,2.97
2023-05-13T08:58:37.299Z,3.47
2023-05-13T09:01:07.254Z,2.97
2023-05-13T09:03:35.811Z,2.92
2023-05-13T09:06:03.618Z,2.90
2023-05-13T09:08:32.615Z,3.03
2023-05-13T09:11:00.834Z,3.47
2023-05-13T09:13:28.152Z,3.05
2023-05-13T09:15:55.870Z,3.30
2023-05-13T09:18:30.296Z,3.15
2023-05-13T09:20:58.115Z,2.75
2023-05-13T09:23:25.385Z,2.90
2023-05-13T09:25:53.274Z,2.92
2023-05-13T09:28:20.547Z,3.20
2023-05-13T09:30:54.928Z,3.35
2023-05-13T09:33:22.707Z,2.80
2023-05-13T09:35:52.958Z,3.00
2023-05-13T09:38:21.930Z,3.05
2023-05-13T09:40:55.565Z,3.00
2023-05-13T09:43:23.892Z,3.17
2023-05-13T09:45:55.031Z,3.08
2023-05-13T09:48:27.098Z,3.03
2023-05-13T09:50:56.152Z,3.10
2023-05-13T09:53:23.701Z,3.20
2023-05-13T09:55:54.895Z,3.30
2023-05-13T09:58:22.734Z,3.55
2023-05-13T10:00:50.415Z,3.53
2023-05-13T10:03:17.731Z,3.15
2023-05-13T10:05:45.954Z,3.10
2023-05-13T10:08:15.360Z,3.22
2023-05-13T10:10:46.491Z,3.50
2023-05-13T10:13:17.889Z,3.08
2023-05-13T10:15:52.699Z,3.15
2023-05-13T10:18:20.925Z,3.22
2023-05-13T10:20:53.643Z,3.20
2023-05-13T10:23:22.447Z,3.13
2023-05-13T10:25:51.942Z,3.13
2023-05-13T10:28:19.569Z,3.28
2023-05-13T10:30:47.691Z,3.53
2023-05-13T10:33:16.785Z,3.90
2023-05-13T10:35:59.684Z,3.10
2023-05-13T10:38:53.337Z,2.97
2023-05-13T10:41:39.407Z,3.40
2023-05-13T10:44:09.756Z,3.38
2023-05-13T10:46:39.683Z,3.45
2023-05-13T10:49:15.790Z,3.58
2023-05-13T10:51:50.388Z,2.88
2023-05-13T10:54:21.654Z,3.67
2023-05-13T10:56:59.339Z,3.70
2023-05-13T10:59:30.393Z,2.90
2023-05-13T11:01:58.374Z,3.17
2023-05-13T11:04:25.750Z,3.47
2023-05-13T11:06:53.612Z,2.80
2023-05-13T11:09:24.016Z,3.05
2023-05-13T11:11:55.352Z,3.45
2023-05-13T11:14:23.573Z,3.13
2023-05-13T11:17:04.401Z,3.10
2023-05-13T11:19:37.958Z,2.97
2023-05-13T11:22:24.276Z,2.85
2023-05-13T11:25:04.056Z,2.75
2023-05-13T11:27:34.031Z,2.58
2023-05-13T11:30:01.329Z,2.70
2023-05-13T11:32:47.521Z,2.40
2023-05-13T11:35:19.864Z,3.08
2023-05-13T11:37:49.100Z,2.67
2023-05-13T11:40:35.373Z,2.55
2023-05-13T11:43:05.074Z,2.95
2023-05-13T11:45:33.385Z,2.63
2023-05-13T11:48:18.280Z,3.22
2023-05-13T11:50:45.600Z,3.60
2023-05-13T11:53:19.980Z,2.90
2023-05-13T11:55:47.283Z,3.20
2023-05-13T11:58:17.882Z,2.90
2023-05-13T12:00:46.634Z,3.15
2023-05-13T12:03:16.136Z,2.83
2023-05-13T12:05:44.697Z,2.10
2023-05-13T12:08:12.480Z,2.70
2023-05-13T12:10:49.152Z,2.50
2023-05-13T12:13:17.108Z,3.47
2023-05-13T12:15:44.414Z,2.75
2023-05-13T12:18:12.281Z,2.80
2023-05-13T12:20:39.662Z,2.42
2023-05-13T12:23:07.298Z,2.67
2023-05-13T12:25:40.550Z,3.00
2023-05-13T12:28:18.599Z,3.17
2023-05-13T12:31:02.619Z,2.65
2023-05-13T12:33:43.223Z,3.10
2023-05-13T12:36:16.540Z,3.45
2023-05-13T12:39:01.485Z,3.35
2023-05-13T12:41:34.765Z,2.88
2023-05-13T12:44:03.974Z,3.00
2023-05-13T12:46:31.579Z,2.45
2023-05-13T12:49:00.285Z,2.33
2023-05-13T12:51:27.606Z,3.08
2023-05-13T12:53:55.653Z,2.80
2023-05-13T12:56:23.373Z,3.17
2023-05-13T12:58:51.512Z,2.88
2023-05-13T13:01:18.965Z,3.15
2023-05-13T13:03:46.716Z,3.60
2023-05-13T13:06:14.239Z,3.70
2023-05-13T13:08:42.330Z,3.33
2023-05-13T13:11:09.869Z,2.72
2023-05-13T13:13:39.142Z,4.07
2023-05-13T13:16:07.321Z,3.70
2023-05-13T13:18:34.935Z,3.30
2023-05-13T13:21:02.640Z,3.67
2023-05-13T13:23:30.259Z,3.63
2023-05-13T13:26:00.829Z,3.95
2023-05-13T13:28:28.709Z,3.28
2023-05-13T13:30:56.214Z,4.10
2023-05-13T13:33:23.865Z,3.53
2023-05-13T13:35:51.216Z,4.63
2023-05-13T13:38:18.790Z,3.97
2023-05-13T13:40:46.141Z,4.00
2023-05-13T13:43:13.988Z,3.95
2023-05-13T13:45:41.327Z,3.70
2023-05-13T13:48:09.021Z,4.15
2023-05-13T13:50:36.406Z,4.20
2023-05-13T13:53:04.023Z,3.13
2023-05-13T13:55:31.353Z,3.47
2023-05-13T13:57:58.942Z,3.45
2023-05-13T14:00:26.440Z,3.17
2023-05-13T14:02:54.157Z,3.03
2023-05-13T14:05:21.569Z,2.97
2023-05-13T14:07:53.731Z,3.60
2023-05-13T14:10:21.297Z,3.15
2023-05-13T14:12:49.061Z,3.30
2023-05-13T14:15:16.377Z,3.22
2023-05-13T14:17:44.226Z,3.53
2023-05-13T14:20:12.200Z,3.30
2023-05-13T14:22:39.873Z,3.20
2023-05-13T14:25:09.001Z,3.92
2023-05-13T14:27:37.004Z,3.40
2023-05-13T14:30:05.350Z,3.30
2023-05-13T14:32:33.683Z,3.08
2023-05-13T14:35:01.037Z,3.33
2023-05-13T14:37:28.690Z,3.50
2023-05-13T14:39:56.651Z,3.30
2023-05-13T14:42:24.263Z,3.22
2023-05-13T14:44:51.541Z,3.17
2023-05-13T14:47:19.143Z,3.22
2023-05-13T14:49:46.625Z,3.60
2023-05-13T14:52:14.206Z,3.70
2023-05-13T14:54:41.476Z,3.63
2023-05-13T14:57:09.096Z,3.67
2023-05-13T14:59:36.393Z,3.45
2023-05-13T15:02:04.584Z,3.72
2023-05-13T15:04:32.066Z,3.25
2023-05-13T15:06:59.870Z,2.95
2023-05-13T15:09:27.267Z,3.60
2023-05-13T15:11:54.830Z,3.20
2023-05-13T15:14:25.924Z,2.95
2023-05-13T15:16:54.053Z,3.05
2023-05-13T15:19:21.466Z,3.13
2023-05-13T15:21:49.039Z,2.83
2023-05-13T15:24:16.335Z,3.25
2023-05-13T15:26:43.908Z,3.05
2023-05-13T15:29:11.252Z,3.00
2023-05-13T15:31:38.939Z,3.45
2023-05-13T15:34:06.277Z,4.05
2023-05-13T15:36:35.431Z,2.90
2023-05-13T15:39:02.904Z,2.80
2023-05-13T15:41:30.471Z,3.72
2023-05-13T15:43:57.835Z,2.97
2023-05-13T15:46:26.201Z,2.78
2023-05-13T15:48:53.563Z,3.13
2023-05-13T15:51:21.237Z,3.17
2023-05-13T15:53:48.943Z,3.53
2023-05-13T15:56:16.220Z,3.42
2023-05-13T15:58:43.804Z,3.25
2023-05-13T16:01:11.252Z,3.42
2023-05-13T16:03:38.952Z,2.80
2023-05-13T16:06:06.250Z,2.72
2023-05-13T16:08:33.834Z,3.25
2023-05-13T16:11:01.160Z,2.92
2023-05-13T16:13:28.770Z,3.33
2023-05-13T16:15:56.312Z,2.85
2023-05-13T16:18:24.357Z,3.60
2023-05-13T16:20:52.334Z,4.80
2023-05-13T16:23:19.929Z,3.75
2023-05-13T16:25:47.298Z,4.22
2023-05-13T16:28:14.885Z,5.32
2023-05-13T16:30:42.630Z,3.85
2023-05-13T16:33:11.398Z,3.28
2023-05-13T16:35:38.759Z,4.25
2023-05-13T16:38:06.433Z,3.30
2023-05-13T16:40:33.925Z,3.15
2023-05-13T16:43:03.727Z,3.42
2023-05-13T16:45:31.446Z,5.93
2023-05-13T16:47:59.169Z,3.85
2023-05-13T16:50:26.832Z,4.50
2023-05-13T16:52:54.545Z,6.45
2023-05-13T16:55:22.527Z,5.75
2023-05-13T16:57:50.148Z,3.40
2023-05-13T17:00:17.656Z,3.90
2023-05-13T17:02:45.435Z,3.55
2023-05-13T17:05:12.970Z,9.65
2023-05-13T17:07:40.596Z,8.18
2023-05-13T17:10:08.267Z,13.20
2023-05-13T17:12:35.896Z,5.15
2023-05-13T17:15:04.059Z,6.10
2023-05-13T17:17:31.690Z,6.05
2023-05-13T17:19:59.004Z,6.10
2023-05-13T17:22:26.647Z,21.00
2023-05-13T17:24:53.927Z,7.68
2023-05-13T17:27:21.541Z,8.50
2023-05-13T17:29:48.931Z,10.95
2023-05-13T17:32:16.587Z,8.25
2023-05-13T17:34:43.886Z,6.97
2023-05-13T17:37:11.476Z,4.57
2023-05-13T17:39:38.731Z,4.68
2023-05-13T17:42:06.414Z,4.35
2023-05-13T17:44:33.733Z,4.13
2023-05-13T17:47:01.824Z,4.03
2023-05-13T17:49:29.072Z,3.92
2023-05-13T17:51:56.669Z,3.45
2023-05-13T17:54:24.039Z,5.72
2023-05-13T17:56:51.696Z,3.80
2023-05-13T17:59:18.950Z,3.20
2023-05-13T18:01:46.620Z,3.28
2023-05-13T18:04:13.975Z,3.25
2023-05-13T18:06:41.548Z,3.10
2023-05-13T18:09:09.229Z,2.97
2023-05-13T18:11:36.819Z,2.75
2023-05-13T18:14:04.167Z,3.40
2023-05-13T18:16:31.841Z,3.30
2023-05-13T18:18:59.196Z,2.22
2023-05-13T18:21:28.889Z,2.92
2023-05-13T18:23:56.606Z,1.92
2023-05-13T18:26:24.428Z,2.10
2023-05-13T18:28:51.791Z,1.75
2023-05-13T18:31:19.387Z,2.50
2023-05-13T18:33:46.695Z,2.20
2023-05-13T18:36:14.431Z,2.10
2023-05-13T18:38:41.797Z,2.67
2023-05-13T18:41:09.425Z,2.30
2023-05-13T18:43:36.707Z,3.20
2023-05-13T18:46:04.351Z,2.17
2023-05-13T18:48:31.673Z,2.22
2023-05-13T18:50:59.550Z,2.30
2023-05-13T18:53:26.943Z,3.00
2023-05-13T18:55:54.809Z,3.28
2023-05-13T18:58:22.303Z,4.13
2023-05-13T19:00:50.139Z,6.15
2023-05-13T19:03:17.898Z,3.60
2023-05-13T19:05:46.169Z,2.40
2023-05-13T19:08:13.579Z,3.15
2023-05-13T19:10:41.271Z,3.35
2023-05-13T19:13:08.674Z,3.05
2023-05-13T19:15:36.648Z,4.57
2023-05-13T19:18:04.116Z,3.58
2023-05-13T19:20:31.851Z,6.18
2023-05-13T19:22:59.177Z,11.27
2023-05-13T19:25:26.792Z,10.18
2023-05-13T19:27:54.132Z,8.35
2023-05-13T19:30:21.934Z,7.57
2023-05-13T19:32:49.538Z,12.25
2023-05-13T19:35:17.241Z,10.13
2023-05-13T19:37:44.621Z,6.70
2023-05-13T19:40:12.327Z,8.35
2023-05-13T19:42:39.688Z,5.60
2023-05-13T19:45:07.913Z,10.35
2023-05-13T19:47:35.528Z,5.55
2023-05-13T19:50:03.395Z,3.33
2023-05-13T19:52:30.836Z,4.90
2023-05-13T19:54:58.621Z,5.03
2023-05-13T19:57:27.518Z,8.68
2023-05-13T19:59:57.722Z,8.30
2023-05-13T20:02:26.303Z,12.60
2023-05-13T20:04:54.001Z,5.70
2023-05-13T20:07:21.303Z,4.05
2023-05-13T20:09:48.902Z,3.67
2023-05-13T20:12:16.171Z,3.80
2023-05-13T20:14:44.027Z,3.67
2023-05-13T20:17:12.176Z,3.58
2023-05-13T20:19:39.832Z,4.45
2023-05-13T20:22:07.132Z,9.88
2023-05-13T20:24:34.707Z,6.10
2023-05-13T20:27:02.027Z,4.18
2023-05-13T20:29:34.378Z,4.97
2023-05-13T20:32:01.797Z,5.32
2023-05-13T20:34:29.419Z,4.95
2023-05-13T20:36:56.940Z,7.25
2023-05-13T20:39:24.758Z,6.25
2023-05-13T20:41:52.321Z,5.50
2023-05-13T20:44:20.006Z,52.65
2023-05-13T20:46:49.110Z,58.22
2023-05-13T20:49:17.007Z,44.75
2023-05-13T20:51:44.985Z,37.28
2023-05-13T20:54:12.887Z,11.57
2023-05-13T20:56:40.484Z,5.20
2023-05-13T20:59:08.541Z,5.60
2023-05-13T21:01:36.367Z,6.10
2023-05-13T21:04:05.988Z,5.18
2023-05-13T21:06:33.546Z,4.07
2023-05-13T21:09:01.151Z,4.47
2023-05-13T21:11:28.439Z,4.40
2023-05-13T21:13:56.084Z,4.55
2023-05-13T21:16:23.454Z,5.20
2023-05-13T21:18:51.189Z,9.20
2023-05-13T21:21:18.550Z,9.00
2023-05-13T21:23:47.662Z,8.32
2023-05-13T21:26:14.984Z,5.95
2023-05-13T21:28:42.555Z,6.00
2023-05-13T21:31:09.949Z,7.68
2023-05-13T21:33:37.588Z,10.18
2023-05-13T21:36:04.979Z,7.53
2023-05-13T21:38:32.701Z,13.73
2023-05-13T21:41:00.018Z,21.33
2023-05-13T21:43:27.594Z,13.63
2023-05-13T21:45:54.893Z,13.20
2023-05-13T21:48:22.657Z,11.32
2023-05-13T21:50:50.401Z,13.52
2023-05-13T21:53:18.225Z,16.92
2023-05-13T21:55:45.925Z,16.02
2023-05-13T21:58:13.575Z,8.32
2023-05-13T22:00:41.753Z,9.18
2023-05-13T22:03:09.491Z,6.60
2023-05-13T22:05:42.197Z,5.30
2023-05-13T22:08:10.591Z,4.55
2023-05-13T22:10:38.330Z,6.03
2023-05-13T22:13:06.305Z,5.38
2023-05-13T22:15:33.669Z,4.78
2023-05-13T22:18:01.383Z,5.18
2023-05-13T22:20:28.763Z,6.13
2023-05-13T22:22:56.322Z,4.90
2023-05-13T22:25:23.652Z,5.53
2023-05-13T22:27:51.448Z,5.15
2023-05-13T22:30:18.961Z,5.55
2023-05-13T22:32:46.521Z,4.72
2023-05-13T22:35:13.869Z,5.93
2023-05-13T22:37:41.516Z,7.13
2023-05-13T22:40:10.402Z,6.78
2023-05-13T22:42:38.029Z,7.20
2023-05-13T22:45:05.549Z,8.68
2023-05-13T22:47:33.113Z,10.20
2023-05-13T22:50:00.536Z,8.57
2023-05-13T22:52:28.082Z,8.18
2023-05-13T22:54:55.454Z,6.35
2023-05-13T22:57:23.056Z,7.05
2023-05-13T22:59:50.551Z,5.78
2023-05-13T23:02:18.150Z,5.25
2023-05-13T23:04:45.493Z,6.82
2023-05-13T23:07:13.073Z,6.47
2023-05-13T23:09:40.413Z,6.70
2023-05-13T23:12:08.413Z,6.25
2023-05-13T23:14:35.938Z,7.18
2023-05-13T23:17:03.560Z,6.43
2023-05-13T23:19:30.914Z,6.43
2023-05-13T23:21:58.564Z,4.40
2023-05-13T23:24:25.896Z,5.63
2023-05-13T23:26:53.696Z,6.20
2023-05-13T23:29:21.086Z,5.25
2023-05-13T23:31:48.711Z,5.50
2023-05-13T23:34:16.010Z,5.43
2023-05-13T23:36:43.579Z,5.43
2023-05-13T23:39:10.920Z,6.00
2023-05-13T23:41:38.468Z,5.57
2023-05-13T23:44:05.810Z,5.80
2023-05-13T23:46:33.423Z,5.82
2023-05-13T23:49:00.684Z,5.28
2023-05-13T23:51:28.362Z,6.20
2023-05-13T23:53:55.700Z,6.10
2023-05-13T23:56:23.232Z,6.25
2023-05-13T23:58:50.716Z,5.75
